Time;durP1;ratioP1;P1;durP2;ratioP2;P2;SDS_P1;SDS_P2;PMS_P1;PMS_P2;Temp;Humidity;BMP_temperature;BMP_pressure;BME280_temperature;BME280_humidity;BME280_pressure;Samples;Min_cycle;Max_cycle;Signal;HPM_P1;HPM_P2
2021/04/17 00:02:08;;;;;;;12.10;10.00;;;8.40;95.00;;;;;;5071370;28;20481;-75
2021/04/17 00:04:36;;;;;;;16.90;11.67;;;8.30;95.20;;;;;;5054484;28;20445;-76
2021/04/17 00:07:03;;;;;;;16.50;12.50;;;8.30;95.20;;;;;;5071083;28;20432;-75
2021/04/17 00:09:32;;;;;;;11.90;10.70;;;8.30;95.40;;;;;;5070954;28;20448;-76
2021/04/17 00:12:01;;;;;;;17.03;13.53;;;8.30;95.10;;;;;;5072229;28;20420;-76
2021/04/17 00:14:32;;;;;;;18.20;12.97;;;8.20;95.30;;;;;;5072266;28;21046;-75
2021/04/17 00:16:58;;;;;;;21.87;14.97;;;8.20;95.60;;;;;;5071574;28;20439;-76
2021/04/17 00:19:24;;;;;;;21.17;15.60;;;8.20;95.90;;;;;;5071578;28;20475;-75
2021/04/17 00:21:51;;;;;;;21.30;14.97;;;8.20;95.90;;;;;;5068063;28;20816;-76
2021/04/17 00:24:19;;;;;;;18.43;15.20;;;8.20;95.80;;;;;;5072032;28;20452;-75
2021/04/17 00:26:45;;;;;;;17.00;15.23;;;8.20;96.10;;;;;;5070986;28;21181;-75
2021/04/17 00:29:11;;;;;;;18.93;14.57;;;8.20;95.90;;;;;;5072442;28;20419;-76
2021/04/17 00:31:40;;;;;;;15.07;12.70;;;8.10;96.10;;;;;;5072265;28;20440;-75
2021/04/17 00:34:06;;;;;;;22.83;17.60;;;8.10;95.90;;;;;;5054267;28;20949;-75
2021/04/17 00:36:34;;;;;;;27.13;18.77;;;8.10;95.90;;;;;;5071036;28;20436;-76
2021/04/17 00:39:00;;;;;;;22.50;18.33;;;8.10;95.90;;;;;;5072295;28;20430;-75
2021/04/17 00:41:29;;;;;;;14.33;12.70;;;8.10;96.20;;;;;;5072291;28;20448;-76
2021/04/17 00:43:58;;;;;;;11.90;10.60;;;8.00;96.00;;;;;;5053676;28;20471;-76
2021/04/17 00:46:24;;;;;;;12.50;9.30;;;8.00;96.60;;;;;;5072026;28;20420;-75
2021/04/17 00:48:51;;;;;;;13.30;11.13;;;8.00;96.30;;;;;;5071442;28;20420;-76
2021/04/17 00:51:19;;;;;;;13.27;10.90;;;8.00;96.40;;;;;;5068359;28;20429;-76
2021/04/17 00:53:46;;;;;;;19.90;12.10;;;7.90;96.90;;;;;;5059220;28;20800;-76
2021/04/17 00:56:13;;;;;;;9.73;8.73;;;7.80;97.00;;;;;;5057898;28;20418;-76
2021/04/17 00:58:42;;;;;;;9.20;8.30;;;7.80;97.00;;;;;;5075661;28;20436;-75
2021/04/17 01:01:08;;;;;;;8.90;7.83;;;7.80;97.10;;;;;;5074529;28;21102;-75
2021/04/17 01:03:49;;;;;;;10.60;7.80;;;7.70;97.20;;;;;;5073910;28;20484;-76
2021/04/17 01:06:38;;;;;;;9.60;7.37;;;7.70;97.20;;;;;;5074107;28;20439;-76
2021/04/17 01:09:17;;;;;;;9.03;8.17;;;7.70;97.40;;;;;;5074423;28;20431;-75
2021/04/17 01:11:48;;;;;;;9.50;8.50;;;7.70;97.10;;;;;;5074330;28;20940;-75
2021/04/17 01:14:19;;;;;;;10.25;9.18;;;7.60;97.20;;;;;;5073923;28;20806;-76
2021/04/17 01:16:47;;;;;;;11.90;9.83;;;7.60;97.60;;;;;;5074113;28;20273;-75
2021/04/17 01:19:43;;;;;;;12.57;10.07;;;7.60;97.60;;;;;;5057614;28;20456;-76
2021/04/17 01:22:11;;;;;;;12.67;8.60;;;7.60;97.50;;;;;;5060792;28;20466;-76
2021/04/17 01:24:40;;;;;;;9.63;8.53;;;7.50;97.60;;;;;;5075134;28;20440;-76
2021/04/17 01:27:07;;;;;;;10.13;8.23;;;7.50;97.80;;;;;;5056815;28;20423;-75
2021/04/17 01:29:35;;;;;;;8.70;7.80;;;7.50;97.80;;;;;;5074823;28;20425;-75
2021/04/17 01:32:03;;;;;;;7.47;6.77;;;7.50;97.50;;;;;;5074017;28;20834;-75
2021/04/17 01:34:30;;;;;;;8.03;6.40;;;7.40;97.70;;;;;;5073583;28;20808;-76
2021/04/17 01:36:58;;;;;;;7.00;6.30;;;7.30;98.10;;;;;;5073833;28;20421;-75
2021/04/17 01:39:26;;;;;;;7.13;6.50;;;7.40;98.20;;;;;;5057143;28;20440;-75
2021/04/17 01:41:57;;;;;;;7.03;5.93;;;7.30;98.20;;;;;;5055341;28;20475;-75
2021/04/17 01:44:27;;;;;;;7.72;6.10;;;7.20;98.40;;;;;;5073900;28;20443;-75
2021/04/17 01:47:00;;;;;;;8.03;6.93;;;7.20;98.80;;;;;;5075085;28;20180;-75
2021/04/17 01:49:30;;;;;;;7.23;5.70;;;7.20;98.90;;;;;;5073575;28;20431;-76
2021/04/17 01:51:58;;;;;;;7.50;6.80;;;7.10;98.90;;;;;;5063674;28;20528;-76
2021/04/17 01:54:27;;;;;;;7.23;6.53;;;7.10;98.80;;;;;;5073386;28;20455;-76
2021/04/17 01:56:57;;;;;;;10.83;6.60;;;7.10;99.00;;;;;;5074880;28;20766;-76
2021/04/17 01:59:26;;;;;;;7.10;6.40;;;7.10;99.30;;;;;;5073469;28;20439;-75
2021/04/17 02:01:52;;;;;;;7.60;6.70;;;7.00;99.30;;;;;;5072894;28;20452;-75
2021/04/17 02:04:18;;;;;;;10.03;6.90;;;7.10;99.50;;;;;;5056627;28;20530;-75
2021/04/17 02:06:44;;;;;;;6.72;6.10;;;7.10;99.30;;;;;;5074473;28;20507;-76
2021/04/17 02:09:13;;;;;;;8.77;6.53;;;7.00;99.50;;;;;;5073394;28;20217;-75
2021/04/17 02:11:39;;;;;;;7.33;6.57;;;7.00;99.60;;;;;;5074543;28;20912;-75
2021/04/17 02:14:06;;;;;;;5.57;4.90;;;7.00;99.70;;;;;;5074423;28;20564;-75
2021/04/17 02:16:48;;;;;;;9.27;5.50;;;7.00;99.90;;;;;;5074088;28;20423;-75
2021/04/17 02:19:25;;;;;;;9.03;4.60;;;6.90;99.90;;;;;;5073059;28;20424;-76
2021/04/17 02:21:58;;;;;;;7.07;5.63;;;6.90;99.90;;;;;;5062178;28;20523;-75
2021/04/17 02:24:28;;;;;;;6.70;5.80;;;6.80;99.90;;;;;;5052944;28;20922;-75
2021/04/17 02:26:57;;;;;;;7.93;6.10;;;6.80;99.90;;;;;;5066523;28;20439;-76
2021/04/17 02:29:23;;;;;;;9.93;5.67;;;6.70;99.90;;;;;;5072909;28;20888;-75
2021/04/17 02:31:50;;;;;;;9.35;5.88;;;6.70;99.90;;;;;;5074123;28;20426;-75
2021/04/17 02:34:18;;;;;;;6.57;5.53;;;6.70;99.90;;;;;;5072561;28;20742;-76
2021/04/17 02:36:44;;;;;;;7.13;5.80;;;6.60;99.90;;;;;;5072719;28;20426;-76
2021/04/17 02:39:10;;;;;;;6.70;5.53;;;6.60;99.90;;;;;;5072275;28;20935;-75
2021/04/17 02:41:36;;;;;;;5.53;5.03;;;6.50;99.90;;;;;;5072636;28;20406;-75
2021/04/17 02:44:05;;;;;;;9.05;5.45;;;6.40;99.90;;;;;;5055348;28;20509;-75
2021/04/17 02:46:31;;;;;;;6.10;5.50;;;6.40;99.90;;;;;;5055989;28;20641;-76
2021/04/17 02:48:57;;;;;;;6.67;5.90;;;6.30;99.90;;;;;;5072161;28;20907;-76
2021/04/17 02:51:26;;;;;;;8.13;5.28;;;6.20;99.90;;;;;;5048571;28;20442;-75
2021/04/17 02:53:52;;;;;;;7.40;4.88;;;6.10;99.90;;;;;;5052704;28;20354;-75
2021/04/17 02:56:21;;;;;;;6.38;5.75;;;6.10;99.90;;;;;;5069201;28;20269;-75
2021/04/17 02:58:47;;;;;;;7.30;5.60;;;5.90;99.90;;;;;;5073117;28;20188;-75
2021/04/17 03:01:13;;;;;;;7.60;5.70;;;5.90;99.90;;;;;;5072897;28;20192;-75
2021/04/17 03:03:39;;;;;;;8.52;4.78;;;5.80;99.90;;;;;;5071771;28;20478;-75
2021/04/17 03:06:06;;;;;;;5.77;5.10;;;5.80;99.90;;;;;;5055469;28;20214;-75
2021/04/17 03:08:34;;;;;;;6.88;5.22;;;5.80;99.90;;;;;;5071971;28;20423;-75
2021/04/17 03:11:03;;;;;;;5.57;5.18;;;5.70;99.90;;;;;;5072761;28;20183;-75
2021/04/17 03:13:31;;;;;;;6.57;5.32;;;5.60;99.90;;;;;;5071607;28;20204;-75
2021/04/17 03:15:59;;;;;;;5.90;5.07;;;5.60;99.90;;;;;;5073032;28;20236;-75
2021/04/17 03:18:27;;;;;;;5.93;5.15;;;5.50;99.90;;;;;;5072753;28;20242;-75
2021/04/17 03:20:56;;;;;;;7.28;5.65;;;5.50;99.90;;;;;;5071866;28;20719;-75
2021/04/17 03:23:24;;;;;;;6.85;5.20;;;5.40;99.90;;;;;;5071393;28;20299;-75
2021/04/17 03:25:50;;;;;;;7.50;6.25;;;5.40;99.90;;;;;;5053051;28;20227;-75
2021/04/17 03:28:19;;;;;;;7.00;5.72;;;5.30;99.90;;;;;;5052052;28;20204;-75
2021/04/17 03:30:48;;;;;;;6.68;5.25;;;5.30;99.90;;;;;;5052098;28;20203;-75
2021/04/17 03:33:16;;;;;;;6.97;6.05;;;5.20;99.90;;;;;;5068386;28;20244;-75
2021/04/17 03:35:42;;;;;;;6.77;5.43;;;5.10;99.90;;;;;;5071851;28;20645;-75
2021/04/17 03:38:08;;;;;;;6.28;4.85;;;5.10;99.90;;;;;;5071424;28;20426;-75
2021/04/17 03:40:34;;;;;;;9.87;5.07;;;5.00;99.90;;;;;;5071522;28;20217;-75
2021/04/17 03:43:03;;;;;;;8.45;5.18;;;4.90;99.90;;;;;;5072537;28;20555;-75
2021/04/17 03:45:31;;;;;;;6.65;5.00;;;4.90;99.90;;;;;;5071686;28;20265;-75
2021/04/17 03:47:57;;;;;;;10.52;5.93;;;4.80;99.90;;;;;;5070897;28;20531;-75
2021/04/17 03:50:26;;;;;;;7.47;5.27;;;4.70;99.90;;;;;;5071576;28;20188;-75
2021/04/17 03:52:52;;;;;;;7.15;4.88;;;4.70;99.90;;;;;;5072571;28;20425;-75
2021/04/17 03:55:22;;;;;;;8.13;5.75;;;4.70;99.90;;;;;;5072380;28;20195;-75
2021/04/17 03:57:48;;;;;;;7.40;5.95;;;4.70;99.90;;;;;;5054794;28;20691;-75
2021/04/17 04:00:18;;;;;;;9.33;5.00;;;4.70;99.90;;;;;;5072607;28;20160;-75
2021/04/17 04:02:44;;;;;;;7.07;5.70;;;4.60;99.90;;;;;;5070744;28;20474;-75
2021/04/17 04:05:16;;;;;;;6.68;3.95;;;4.60;99.90;;;;;;5071424;28;20175;-75
2021/04/17 04:07:44;;;;;;;7.78;5.78;;;4.60;99.90;;;;;;5054749;28;20735;-75
2021/04/17 04:10:13;;;;;;;9.02;6.13;;;4.50;99.90;;;;;;5054683;28;20197;-75
2021/04/17 04:12:43;;;;;;;11.32;5.63;;;4.50;99.90;;;;;;5071536;28;20179;-75
2021/04/17 04:15:11;;;;;;;6.95;5.60;;;4.50;99.90;;;;;;5070906;28;20601;-75
2021/04/17 04:17:37;;;;;;;9.02;7.70;;;4.50;99.90;;;;;;5072257;28;20587;-75
2021/04/17 04:20:06;;;;;;;6.50;5.50;;;4.40;99.90;;;;;;5071294;28;20594;-75
2021/04/17 04:22:36;;;;;;;9.13;5.80;;;4.40;99.90;;;;;;5071121;28;20203;-75
2021/04/17 04:25:04;;;;;;;8.63;6.28;;;4.40;99.90;;;;;;5073764;28;20200;-75
2021/04/17 04:27:30;;;;;;;9.73;6.38;;;4.40;99.90;;;;;;5074864;28;20182;-75
2021/04/17 04:29:56;;;;;;;6.27;5.17;;;4.40;99.90;;;;;;5075188;28;20179;-75
2021/04/17 04:32:27;;;;;;;7.13;5.70;;;4.30;99.90;;;;;;5058666;28;20453;-75
2021/04/17 04:34:53;;;;;;;9.95;5.97;;;4.30;99.90;;;;;;5058186;28;20226;-75
2021/04/17 04:37:19;;;;;;;9.55;5.60;;;4.30;99.90;;;;;;5075153;28;20176;-75
2021/04/17 04:39:45;;;;;;;8.50;5.90;;;4.20;99.90;;;;;;5076394;28;20188;-76
2021/04/17 04:42:13;;;;;;;7.28;5.95;;;4.20;99.90;;;;;;5075204;28;20453;-75
2021/04/17 04:44:39;;;;;;;9.00;5.97;;;4.10;99.90;;;;;;5075555;28;20203;-75
2021/04/17 04:47:05;;;;;;;6.03;5.37;;;4.10;99.90;;;;;;5074454;28;20183;-74
2021/04/17 04:49:31;;;;;;;7.67;5.70;;;4.10;99.90;;;;;;5074443;28;20526;-75
2021/04/17 04:51:57;;;;;;;7.15;5.38;;;4.10;99.90;;;;;;5074477;28;20429;-75
2021/04/17 04:54:24;;;;;;;7.80;5.63;;;4.10;99.90;;;;;;5075477;28;20200;-75
2021/04/17 04:56:49;;;;;;;8.50;6.30;;;4.10;99.90;;;;;;5075798;28;20222;-74
2021/04/17 04:59:16;;;;;;;11.10;7.40;;;4.10;99.90;;;;;;5075305;28;20182;-75
2021/04/17 05:01:42;;;;;;;6.55;5.50;;;4.00;99.90;;;;;;5075727;28;20780;-75
2021/04/17 05:04:10;;;;;;;7.88;5.93;;;4.10;99.90;;;;;;5095562;28;20214;-75
2021/04/17 05:06:39;;;;;;;7.13;5.60;;;4.10;99.90;;;;;;5095326;28;20240;-74
2021/04/17 05:09:05;;;;;;;8.40;5.20;;;4.10;99.90;;;;;;5095907;28;20179;-75
2021/04/17 05:11:33;;;;;;;6.65;4.78;;;4.10;99.90;;;;;;5077414;28;20183;-75
2021/04/17 05:13:59;;;;;;;11.30;5.90;;;4.10;99.90;;;;;;5095456;28;20244;-76
2021/04/17 05:16:28;;;;;;;8.25;5.28;;;4.20;99.90;;;;;;5060521;28;20179;-73
2021/04/17 05:18:54;;;;;;;7.60;5.47;;;4.20;99.90;;;;;;5095237;28;20618;-73
2021/04/17 05:21:20;;;;;;;7.27;6.00;;;4.40;99.90;;;;;;5076866;28;20223;-75
2021/04/17 05:23:46;;;;;;;7.68;5.10;;;4.40;99.90;;;;;;5076686;28;20946;-75
2021/04/17 05:26:12;;;;;;;8.37;6.27;;;4.40;99.90;;;;;;5076272;28;20175;-75
2021/04/17 05:28:40;;;;;;;7.30;5.65;;;4.60;99.90;;;;;;5094360;28;20453;-75
2021/04/17 05:31:06;;;;;;;6.18;5.57;;;4.60;99.90;;;;;;5094079;28;20187;-75
2021/04/17 05:33:32;;;;;;;8.90;6.10;;;4.80;99.90;;;;;;5076238;28;20207;-74
2021/04/17 05:35:58;;;;;;;7.70;6.83;;;4.80;99.90;;;;;;5072941;28;20639;-75
2021/04/17 05:38:24;;;;;;;9.50;5.72;;;5.00;99.90;;;;;;5075938;28;20948;-75
2021/04/17 05:40:50;;;;;;;6.43;5.40;;;5.10;99.90;;;;;;5093950;28;20190;-75
2021/04/17 05:43:21;;;;;;;7.38;5.70;;;5.30;99.90;;;;;;5075756;28;20471;-75
2021/04/17 05:45:47;;;;;;;7.53;6.03;;;5.30;99.90;;;;;;5075912;28;20678;-74
2021/04/17 05:48:13;;;;;;;10.95;5.80;;;5.40;99.90;;;;;;5094207;28;20208;-75
2021/04/17 05:50:39;;;;;;;6.53;5.72;;;5.50;99.90;;;;;;5075651;28;20182;-75
2021/04/17 05:53:05;;;;;;;8.75;4.88;;;5.60;99.90;;;;;;5055645;28;20669;-74
2021/04/17 05:55:31;;;;;;;8.02;6.75;;;5.70;99.90;;;;;;5062570;28;20214;-75
2021/04/17 05:57:59;;;;;;;11.82;6.07;;;5.90;99.90;;;;;;5075379;28;20199;-75
2021/04/17 06:00:26;;;;;;;6.40;5.73;;;6.10;99.90;;;;;;5074595;28;20189;-75
2021/04/17 06:02:55;;;;;;;12.38;5.82;;;6.10;99.90;;;;;;5075460;28;21211;-75
2021/04/17 06:05:24;;;;;;;8.45;5.78;;;6.20;99.90;;;;;;5058449;28;20199;-75
2021/04/17 06:07:50;;;;;;;10.77;5.78;;;6.30;99.90;;;;;;5075618;28;20673;-76
2021/04/17 06:10:18;;;;;;;7.78;5.53;;;6.40;99.90;;;;;;5075867;28;20667;-75
2021/04/17 06:12:44;;;;;;;7.07;5.20;;;6.40;99.90;;;;;;5075432;28;20193;-75
2021/04/17 06:15:11;;;;;;;6.28;5.30;;;6.60;99.90;;;;;;5093475;28;20546;-75
2021/04/17 06:17:37;;;;;;;7.05;6.28;;;6.60;99.90;;;;;;5073452;28;20603;-75
2021/04/17 06:20:04;;;;;;;6.13;5.10;;;6.50;99.90;;;;;;5093136;28;20180;-75
2021/04/17 06:22:30;;;;;;;7.53;6.63;;;6.60;99.90;;;;;;5074984;28;20474;-75
2021/04/17 06:24:56;;;;;;;8.20;7.50;;;6.60;99.90;;;;;;5093241;28;20570;-75
2021/04/17 06:27:24;;;;;;;18.45;15.82;;;6.70;99.90;;;;;;5093261;28;20234;-75
2021/04/17 06:29:50;;;;;;;9.13;7.90;;;6.70;99.90;;;;;;5074923;28;20550;-75
2021/04/17 06:32:19;;;;;;;8.70;7.80;;;6.70;99.90;;;;;;5075044;28;20450;-75
2021/04/17 06:34:47;;;;;;;9.40;6.83;;;6.70;99.90;;;;;;5074997;28;20464;-75
2021/04/17 06:37:13;;;;;;;10.00;6.30;;;6.80;99.90;;;;;;5050093;28;20944;-75
2021/04/17 06:39:39;;;;;;;8.50;6.70;;;6.90;99.90;;;;;;5076664;28;21310;-75
2021/04/17 06:42:11;;;;;;;7.03;6.30;;;7.00;99.90;;;;;;5093036;28;21262;-75
2021/04/17 06:44:41;;;;;;;13.07;6.40;;;7.10;99.90;;;;;;5074743;28;20454;-75
2021/04/17 06:47:09;;;;;;;8.20;6.70;;;7.20;99.90;;;;;;5073810;28;20427;-75
2021/04/17 06:49:37;;;;;;;11.27;6.53;;;7.30;99.90;;;;;;5074814;28;21053;-75
2021/04/17 06:52:06;;;;;;;10.30;7.03;;;7.40;99.90;;;;;;5092986;28;20422;-76
2021/04/17 06:54:32;;;;;;;11.17;6.90;;;7.40;99.90;;;;;;5057871;28;20462;-75
2021/04/17 06:56:58;;;;;;;8.67;6.83;;;7.40;99.90;;;;;;5074394;28;20500;-75
2021/04/17 06:59:25;;;;;;;8.33;6.97;;;7.40;99.90;;;;;;5074574;28;20472;-75
2021/04/17 07:01:51;;;;;;;11.37;7.13;;;7.50;99.90;;;;;;5074484;28;20470;-75
2021/04/17 07:04:17;;;;;;;10.30;6.53;;;7.50;99.90;;;;;;5058224;28;20452;-75
2021/04/17 07:06:44;;;;;;;10.93;6.70;;;7.60;99.90;;;;;;5074373;28;20424;-76
2021/04/17 07:09:13;;;;;;;11.30;7.00;;;7.60;99.90;;;;;;5074492;28;20506;-75
2021/04/17 07:11:40;;;;;;;9.13;6.30;;;7.80;99.90;;;;;;5092808;28;20414;-75
2021/04/17 07:14:13;;;;;;;10.50;7.40;;;7.90;99.90;;;;;;5092601;28;21117;-75
2021/04/17 07:17:02;;;;;;;11.33;6.93;;;7.90;99.90;;;;;;5074134;28;20427;-75
2021/04/17 07:19:50;;;;;;;8.27;7.47;;;8.00;99.90;;;;;;5090548;28;20941;-75
2021/04/17 07:22:40;;;;;;;10.23;6.90;;;8.00;99.20;;;;;;5088985;28;20882;-75
2021/04/17 07:25:06;;;;;;;9.30;6.27;;;8.00;99.40;;;;;;5092871;28;20463;-76
2021/04/17 07:27:42;;;;;;;8.23;7.50;;;8.10;99.90;;;;;;5073331;28;20416;-75
2021/04/17 07:30:11;;;;;;;9.30;7.10;;;8.10;99.70;;;;;;5060625;28;20786;-76
2021/04/17 07:32:37;;;;;;;9.40;7.10;;;8.10;99.50;;;;;;5075267;28;20452;-75
2021/04/17 07:35:15;;;;;;;7.43;6.60;;;8.20;99.00;;;;;;5075381;28;20439;-75
2021/04/17 07:37:46;;;;;;;7.53;6.80;;;8.20;98.80;;;;;;5075233;28;20848;-75
2021/04/17 07:40:25;;;;;;;9.43;7.03;;;8.30;98.90;;;;;;5092892;28;20928;-75
2021/04/17 07:42:56;;;;;;;7.50;6.50;;;8.30;98.00;;;;;;5091991;28;20877;-75
2021/04/17 07:45:34;;;;;;;10.37;6.97;;;8.40;97.80;;;;;;5080091;22;20501;-81
2021/04/17 07:48:21;;;;;;;10.30;7.00;;;8.40;97.20;;;;;;5068764;28;20433;-80
2021/04/17 07:50:48;;;;;;;9.50;8.30;;;8.50;97.70;;;;;;5055378;28;20416;-83
2021/04/17 07:53:30;;;;;;;7.75;6.15;;;8.50;97.90;;;;;;5058018;28;20502;-86
2021/04/17 08:04:50;;;;;;;7.07;5.83;;;8.80;97.40;;;;;;5046603;28;20441;-82
2021/04/17 08:07:18;;;;;;;14.57;6.80;;;8.90;95.50;;;;;;5032841;28;20416;-81
2021/04/17 08:09:56;;;;;;;30.70;7.90;;;8.90;95.10;;;;;;5048768;28;20739;-81
2021/04/17 08:12:27;;;;;;;8.50;6.07;;;9.00;95.30;;;;;;5033252;28;20717;-82
2021/04/17 08:14:55;;;;;;;16.30;6.40;;;9.10;95.30;;;;;;5033613;28;20446;-84
2021/04/17 08:17:22;;;;;;;9.00;6.50;;;9.20;95.30;;;;;;5045681;28;20422;-82
2021/04/17 08:19:56;;;;;;;9.43;7.13;;;9.20;95.20;;;;;;5040857;28;20771;-83
2021/04/17 08:22:26;;;;;;;18.00;7.37;;;9.20;95.70;;;;;;5035766;28;20604;-83
2021/04/17 08:24:55;;;;;;;10.83;7.40;;;9.40;95.50;;;;;;5053162;28;20771;-82
2021/04/17 08:27:21;;;;;;;8.10;6.73;;;9.50;95.80;;;;;;5068208;28;20434;-83
2021/04/17 08:29:56;;;;;;;15.90;6.63;;;9.60;95.50;;;;;;5052162;28;20426;-83
2021/04/17 08:32:37;;;;;;;10.73;6.70;;;9.70;94.80;;;;;;5034398;28;20899;-82
2021/04/17 08:35:11;;;;;;;14.00;7.20;;;9.70;95.40;;;;;;5038983;28;20912;-83
2021/04/17 08:37:54;;;;;;;8.43;5.83;;;9.80;95.40;;;;;;5049424;28;20434;-82
2021/04/17 08:40:35;;;;;;;9.17;6.60;;;10.00;94.00;;;;;;5052989;28;20426;-83
2021/04/17 08:43:12;;;;;;;11.73;6.50;;;10.20;94.00;;;;;;5022141;28;20460;-83
2021/04/17 08:46:02;;;;;;;9.77;6.50;;;10.30;93.90;;;;;;5048685;28;20443;-83
2021/04/17 08:48:54;;;;;;;8.17;6.00;;;10.60;93.30;;;;;;5031747;28;20433;-81
2021/04/17 08:51:26;;;;;;;6.50;5.90;;;10.60;91.50;;;;;;5045140;28;20425;-82
2021/04/17 08:54:14;;;;;;;6.77;5.37;;;10.70;92.40;;;;;;5034511;28;20919;-82
2021/04/17 08:56:55;;;;;;;7.83;5.33;;;10.90;92.40;;;;;;5050664;28;20920;-82
2021/04/17 08:59:36;;;;;;;7.20;5.60;;;11.00;90.80;;;;;;5032708;28;20489;-80
2021/04/17 09:02:15;;;;;;;8.90;5.77;;;11.10;90.10;;;;;;5052874;28;20411;-80
2021/04/17 09:05:11;;;;;;;13.07;7.83;;;11.20;89.50;;;;;;5051059;28;20426;-81
2021/04/17 09:07:44;;;;;;;7.17;6.53;;;11.30;90.40;;;;;;5048391;28;20458;-81
2021/04/17 09:10:32;;;;;;;8.00;5.87;;;11.50;90.40;;;;;;5037222;28;20509;-83
2021/04/17 09:13:16;;;;;;;8.53;6.33;;;11.60;90.40;;;;;;5046652;28;20927;-83
2021/04/17 09:15:51;;;;;;;9.13;6.50;;;11.90;91.00;;;;;;5045208;28;20419;-79
2021/04/17 09:18:39;;;;;;;10.10;5.70;;;12.00;88.40;;;;;;5036324;28;20736;-79
2021/04/17 09:21:07;;;;;;;5.40;4.90;;;11.90;88.30;;;;;;5049277;28;20538;-79
2021/04/17 09:23:46;;;;;;;5.07;4.57;;;12.10;84.40;;;;;;5038365;28;20466;-79
2021/04/17 09:26:31;;;;;;;8.30;5.23;;;12.30;83.90;;;;;;5054866;28;20439;-79
2021/04/17 09:29:24;;;;;;;8.90;5.80;;;12.50;83.60;;;;;;5056285;28;20440;-79
2021/04/17 09:32:01;;;;;;;10.03;6.63;;;12.70;82.00;;;;;;5044162;28;20802;-81
2021/04/17 09:34:35;;;;;;;10.93;6.60;;;12.80;81.90;;;;;;5055045;28;20477;-79
2021/04/17 09:37:09;;;;;;;12.10;6.50;;;12.80;82.50;;;;;;5018852;28;20806;-79
2021/04/17 09:39:47;;;;;;;17.30;8.73;;;12.90;83.70;;;;;;5037774;28;20435;-80
2021/04/17 09:42:13;;;;;;;8.93;5.70;;;13.00;84.20;;;;;;5045850;28;20802;-79
2021/04/17 09:44:46;;;;;;;7.33;6.33;;;13.00;83.80;;;;;;5036610;28;20467;-79
2021/04/17 09:47:18;;;;;;;7.40;6.70;;;13.00;82.60;;;;;;5055762;28;20477;-79
2021/04/17 09:49:49;;;;;;;18.03;7.97;;;13.00;82.70;;;;;;5054495;28;20748;-79
2021/04/17 09:52:20;;;;;;;18.90;6.50;;;13.10;83.60;;;;;;5034842;28;20865;-79
2021/04/17 09:55:07;;;;;;;7.13;5.60;;;13.40;83.10;;;;;;5042960;28;20778;-82
2021/04/17 09:57:35;;;;;;;8.10;5.13;;;13.80;79.40;;;;;;5043214;28;20762;-80
2021/04/17 10:00:03;;;;;;;7.33;5.87;;;13.90;76.30;;;;;;5053842;28;20424;-84
2021/04/17 10:02:47;;;;;;;6.60;5.93;;;14.10;75.70;;;;;;5055306;28;20477;-81
2021/04/17 10:05:37;;;;;;;6.17;5.57;;;13.90;74.30;;;;;;5047964;28;20435;-83
2021/04/17 10:08:07;;;;;;;6.70;5.80;;;13.60;72.40;;;;;;5035670;28;20429;-83
2021/04/17 10:10:38;;;;;;;7.93;7.13;;;13.60;74.20;;;;;;5058724;28;20434;-83
2021/04/17 10:13:04;;;;;;;7.60;6.17;;;13.70;75.80;;;;;;5054399;28;20429;-83
2021/04/17 10:15:34;;;;;;;8.43;6.80;;;13.80;74.60;;;;;;5053031;28;20495;-83
2021/04/17 10:18:05;;;;;;;8.50;7.70;;;14.00;74.70;;;;;;5052933;28;20444;-82
2021/04/17 10:20:34;;;;;;;7.60;6.90;;;14.10;71.10;;;;;;5051664;28;20917;-85
2021/04/17 10:23:04;;;;;;;10.00;7.03;;;14.00;73.10;;;;;;5054255;28;20515;-82
2021/04/17 10:25:43;;;;;;;6.40;5.90;;;13.90;74.00;;;;;;5059913;28;20441;-82
2021/04/17 10:28:32;;;;;;;7.43;6.80;;;13.80;70.60;;;;;;5035379;28;20433;-84
2021/04/17 10:31:00;;;;;;;8.77;7.97;;;13.90;72.60;;;;;;5049451;28;20504;-84
2021/04/17 10:33:30;;;;;;;8.80;7.50;;;13.80;71.90;;;;;;5052745;28;21221;-82
2021/04/17 10:36:02;;;;;;;10.97;6.20;;;13.60;69.70;;;;;;5052891;28;20436;-82
2021/04/17 10:38:39;;;;;;;7.73;5.67;;;13.50;69.90;;;;;;5053874;28;20430;-84
2021/04/17 10:41:18;;;;;;;9.23;6.67;;;13.20;69.20;;;;;;5053941;28;20444;-83
2021/04/17 10:43:46;;;;;;;7.83;7.07;;;13.40;68.70;;;;;;5054674;28;20487;-83
2021/04/17 10:46:17;;;;;;;8.30;5.93;;;13.40;69.90;;;;;;5070602;28;20413;-82
2021/04/17 10:48:49;;;;;;;6.40;5.73;;;13.50;69.70;;;;;;5053624;28;20440;-83
2021/04/17 10:51:17;;;;;;;7.00;6.40;;;13.50;71.00;;;;;;5054560;28;20417;-82
2021/04/17 10:53:46;;;;;;;9.00;7.60;;;13.80;70.60;;;;;;5053510;28;20448;-81
2021/04/17 10:56:18;;;;;;;6.40;5.80;;;14.10;66.00;;;;;;5054446;28;20424;-83
2021/04/17 10:59:10;;;;;;;8.30;6.10;;;14.20;66.80;;;;;;5054671;28;20423;-84
2021/04/17 11:01:38;;;;;;;6.70;6.20;;;14.20;68.30;;;;;;5036850;28;20413;-84
2021/04/17 11:04:08;;;;;;;8.33;6.13;;;14.20;66.00;;;;;;5054383;28;20465;-81
2021/04/17 11:06:38;;;;;;;8.80;8.10;;;14.20;67.20;;;;;;5053361;28;20427;-83
2021/04/17 11:09:05;;;;;;;7.70;7.00;;;14.30;67.60;;;;;;5054377;28;20437;-81
2021/04/17 11:11:31;;;;;;;5.47;5.07;;;14.20;66.40;;;;;;5053174;28;20425;-84
2021/04/17 11:14:05;;;;;;;6.17;5.57;;;14.10;67.40;;;;;;5053299;28;20424;-82
2021/04/17 11:16:46;;;;;;;6.70;6.20;;;14.00;65.60;;;;;;5053995;28;20508;-82
2021/04/17 11:19:27;;;;;;;7.63;6.93;;;14.30;67.70;;;;;;5053040;28;20774;-84
2021/04/17 11:22:12;;;;;;;8.53;6.60;;;14.60;66.80;;;;;;5053230;28;20445;-81
2021/04/17 11:25:04;;;;;;;8.73;6.60;;;14.50;64.30;;;;;;5043930;28;20453;-85
2021/04/17 11:27:35;;;;;;;7.90;5.87;;;14.40;63.90;;;;;;5033987;28;20859;-84
2021/04/17 11:30:02;;;;;;;9.17;6.33;;;14.30;63.50;;;;;;5049563;28;20491;-81
2021/04/17 11:32:31;;;;;;;8.03;6.40;;;14.10;64.90;;;;;;5033523;28;20443;-81
2021/04/17 11:34:57;;;;;;;7.20;6.57;;;14.00;66.10;;;;;;5049468;28;20758;-81
2021/04/17 11:37:30;;;;;;;7.50;6.80;;;13.90;64.90;;;;;;5049040;28;20755;-81
2021/04/17 11:40:01;;;;;;;6.37;5.90;;;14.00;64.90;;;;;;5034286;28;20429;-81
2021/04/17 11:42:29;;;;;;;8.10;6.50;;;14.00;65.40;;;;;;5033843;28;20505;-81
2021/04/17 11:44:59;;;;;;;7.00;6.40;;;14.10;64.30;;;;;;5049280;28;20499;-81
2021/04/17 11:47:24;;;;;;;6.97;6.37;;;14.10;64.30;;;;;;5032795;28;20454;-81
2021/04/17 11:49:53;;;;;;;7.83;7.03;;;14.40;66.30;;;;;;5033448;28;20439;-82
2021/04/17 11:52:19;;;;;;;8.70;7.27;;;14.30;65.90;;;;;;5034214;28;20426;-83
2021/04/17 11:54:47;;;;;;;7.70;6.90;;;14.20;66.40;;;;;;5043599;28;20430;-81
2021/04/17 11:57:16;;;;;;;11.20;6.30;;;14.00;65.60;;;;;;5053887;28;20415;-82
2021/04/17 11:59:47;;;;;;;7.70;7.10;;;14.00;66.20;;;;;;5053423;28;20529;-82
2021/04/17 12:02:13;;;;;;;7.27;6.17;;;14.40;66.10;;;;;;5052335;28;20422;-81
2021/04/17 12:04:43;;;;;;;7.50;6.90;;;14.40;63.50;;;;;;5069188;28;20445;-82
2021/04/17 12:07:10;;;;;;;8.60;7.70;;;14.40;64.90;;;;;;5069387;28;20442;-81
2021/04/17 12:09:38;;;;;;;6.13;5.47;;;14.60;66.40;;;;;;5052586;28;20887;-82
2021/04/17 12:12:07;;;;;;;7.10;6.20;;;14.60;64.90;;;;;;5053693;28;20401;-81
2021/04/17 12:14:38;;;;;;;12.37;7.00;;;14.60;64.90;;;;;;5052432;28;20433;-82
2021/04/17 12:17:05;;;;;;;7.63;6.37;;;14.40;65.50;;;;;;5053115;28;20420;-81
2021/04/17 12:19:36;;;;;;;7.43;6.03;;;14.30;64.10;;;;;;5053285;28;20927;-81
2021/04/17 12:22:05;;;;;;;8.10;5.57;;;14.30;64.20;;;;;;5053156;28;20445;-81
2021/04/17 12:24:33;;;;;;;10.00;6.47;;;14.20;62.50;;;;;;5061470;28;20508;-82
2021/04/17 12:26:59;;;;;;;5.23;4.83;;;14.10;61.10;;;;;;5033345;28;20426;-81
2021/04/17 12:29:28;;;;;;;6.67;5.83;;;14.20;61.80;;;;;;5048913;28;20416;-81
2021/04/17 12:31:53;;;;;;;6.23;5.73;;;14.50;61.70;;;;;;5048863;28;20432;-81
2021/04/17 12:34:19;;;;;;;5.50;4.70;;;14.70;59.80;;;;;;5032430;28;20448;-82
2021/04/17 12:36:45;;;;;;;6.83;6.13;;;14.90;59.00;;;;;;5033375;28;20923;-83
2021/04/17 12:39:11;;;;;;;9.30;5.67;;;15.10;58.00;;;;;;5032286;28;20443;-84
2021/04/17 12:41:40;;;;;;;6.93;6.27;;;15.40;57.30;;;;;;5032462;28;20415;-81
2021/04/17 12:44:10;;;;;;;7.60;6.90;;;15.50;56.90;;;;;;5056165;28;20920;-81
2021/04/17 12:46:38;;;;;;;6.10;5.60;;;15.80;57.50;;;;;;5056210;28;20497;-81
2021/04/17 12:49:04;;;;;;;5.83;5.33;;;15.90;56.00;;;;;;5037417;28;21007;-82
2021/04/17 12:51:31;;;;;;;7.43;6.13;;;15.90;55.50;;;;;;5048670;28;20515;-81
2021/04/17 12:54:08;;;;;;;7.37;5.13;;;15.90;53.90;;;;;;5059507;28;20442;-81
2021/04/17 12:56:35;;;;;;;6.87;6.30;;;15.90;54.10;;;;;;5041387;28;20526;-80
2021/04/17 12:59:05;;;;;;;6.97;4.53;;;15.90;54.10;;;;;;5055060;28;20508;-83
2021/04/17 13:01:32;;;;;;;6.63;5.50;;;16.30;53.10;;;;;;5056519;28;20573;-82
2021/04/17 13:03:57;;;;;;;11.93;5.73;;;16.20;51.70;;;;;;5036945;28;20553;-80
2021/04/17 13:06:24;;;;;;;7.40;5.07;;;16.30;49.40;;;;;;5037219;28;20451;-81
2021/04/17 13:08:53;;;;;;;6.07;5.40;;;16.00;48.80;;;;;;5053807;28;20871;-80
2021/04/17 13:11:20;;;;;;;6.27;5.70;;;15.80;48.80;;;;;;5045070;28;20501;-82
2021/04/17 13:13:46;;;;;;;6.83;5.73;;;15.60;50.30;;;;;;5051095;28;20445;-80
2021/04/17 13:16:12;;;;;;;6.47;5.13;;;15.20;49.90;;;;;;5052612;28;20456;-80